Jonesville, Indiana
Current Conditions -  °F | °C
As of 8:45 PM on Sunday 21 Dec 2014 (Local Time) from KBAK Reporting Station
Clear Clear  
Wind Chill: 25°   Ceiling: Unl
Heat Index: 30°   Visibility: 10mi
Dew Point: 27°   Wind: 5mph
Humidity: 86%   Direction: 120°ESE
Pressure: 30.14"   Gusts: NA
Location:  39.06°N, 85.89°W
Report Text: KBAK 220145Z 12004KT 10SM SKC M01/M03 A3014
Loading
Personal Weather Stations






























Interactive Weather Map New forecast layout! Learn more

10-Day Weather Forecast

Advertisements
Track Severe Weather on mobile